createdAt,value
2023-04-30T00:01:12.610Z,65.55
2023-04-30T00:03:42.406Z,65.32
2023-04-30T00:06:12.192Z,65.30
2023-04-30T00:08:44.479Z,65.32
2023-04-30T00:11:14.114Z,66.15
2023-04-30T00:13:44.324Z,65.25
2023-04-30T00:16:13.985Z,64.66
2023-04-30T00:18:43.671Z,64.87
2023-04-30T00:21:13.397Z,65.50
2023-04-30T00:23:45.768Z,65.88
2023-04-30T00:26:15.710Z,65.52
2023-04-30T00:28:45.379Z,65.64
2023-04-30T00:31:15.045Z,65.80
2023-04-30T00:33:44.821Z,65.76
2023-04-30T00:36:14.466Z,65.20
2023-04-30T00:38:46.695Z,65.25
2023-04-30T00:41:16.482Z,64.79
2023-04-30T00:43:47.234Z,65.30
2023-04-30T00:46:16.939Z,65.10
2023-04-30T00:48:46.691Z,64.97
2023-04-30T00:51:16.845Z,64.97
2023-04-30T00:53:49.688Z,64.84
2023-04-30T00:56:19.440Z,64.96
2023-04-30T00:58:50.026Z,64.74
2023-04-30T01:03:55.443Z,64.58
2023-04-30T01:06:25.328Z,64.72
2023-04-30T01:08:57.977Z,64.56
2023-04-30T01:11:35.774Z,64.84
2023-04-30T01:14:13.924Z,64.69
2023-04-30T01:16:50.083Z,64.43
2023-04-30T01:19:32.224Z,64.84
2023-04-30T01:22:03.751Z,64.90
2023-04-30T01:25:08.832Z,64.69
2023-04-30T01:28:04.721Z,65.36
2023-04-30T01:30:35.213Z,65.14
2023-04-30T01:33:04.990Z,65.28
2023-04-30T01:35:53.464Z,65.31
2023-04-30T01:38:31.137Z,65.30
2023-04-30T01:41:11.609Z,65.00
2023-04-30T01:43:52.780Z,65.14
2023-04-30T01:46:28.172Z,64.97
2023-04-30T01:49:07.055Z,65.24
2023-04-30T01:51:42.904Z,64.91
2023-04-30T01:54:20.054Z,64.93
2023-04-30T01:56:56.699Z,64.95
2023-04-30T01:59:29.392Z,65.23
2023-04-30T02:01:59.113Z,65.07
2023-04-30T02:04:28.465Z,65.00
2023-04-30T02:06:58.917Z,64.99
2023-04-30T02:09:28.434Z,65.17
2023-04-30T02:11:58.064Z,65.74
2023-04-30T02:14:30.627Z,65.30
2023-04-30T02:17:00.127Z,65.66
2023-04-30T02:19:29.473Z,65.94
2023-04-30T02:21:58.807Z,65.48
2023-04-30T02:24:28.146Z,65.93
2023-04-30T02:26:57.449Z,65.63
2023-04-30T02:29:26.895Z,65.59
2023-04-30T02:32:01.483Z,65.54
2023-04-30T02:34:30.944Z,65.76
2023-04-30T02:37:00.251Z,65.43
2023-04-30T02:39:29.550Z,65.54
2023-04-30T02:41:58.873Z,65.66
2023-04-30T02:44:28.556Z,65.26
2023-04-30T02:47:00.513Z,65.45
2023-04-30T02:49:29.980Z,65.90
2023-04-30T02:51:59.325Z,66.45
2023-04-30T02:54:28.686Z,66.33
2023-04-30T02:56:59.224Z,66.13
2023-04-30T02:59:28.624Z,65.98
2023-04-30T03:02:00.515Z,65.75
2023-04-30T03:04:29.974Z,66.06
2023-04-30T03:07:00.572Z,65.57
2023-04-30T03:09:29.952Z,65.78
2023-04-30T03:11:59.271Z,66.79
2023-04-30T03:14:28.666Z,66.32
2023-04-30T03:17:00.536Z,65.75
2023-04-30T03:19:29.928Z,65.92
2023-04-30T03:21:59.338Z,65.79
2023-04-30T03:24:28.658Z,65.70
2023-04-30T03:26:57.976Z,66.11
2023-04-30T03:29:27.442Z,66.02
2023-04-30T03:31:56.869Z,65.88
2023-04-30T03:34:28.764Z,65.67
2023-04-30T03:36:58.197Z,65.61
2023-04-30T03:39:27.683Z,65.68
2023-04-30T03:41:57.001Z,65.90
2023-04-30T03:44:26.372Z,65.72
2023-04-30T03:46:55.702Z,65.65
2023-04-30T03:49:25.016Z,65.78
2023-04-30T03:51:56.929Z,65.74
2023-04-30T03:54:26.228Z,65.53
2023-04-30T03:56:56.365Z,65.87
2023-04-30T03:59:25.839Z,65.70
2023-04-30T04:01:55.906Z,65.80
2023-04-30T04:04:25.302Z,66.14
2023-04-30T04:06:57.466Z,66.03
2023-04-30T04:09:27.393Z,66.06
2023-04-30T04:11:56.770Z,66.22
2023-04-30T04:14:26.205Z,66.44
2023-04-30T04:16:55.570Z,66.58
2023-04-30T04:19:24.875Z,66.43
2023-04-30T04:21:57.768Z,66.67
2023-04-30T04:24:27.553Z,66.65
2023-04-30T04:26:57.051Z,66.97
2023-04-30T04:29:26.580Z,66.71
2023-04-30T04:31:55.931Z,67.16
2023-04-30T04:34:25.562Z,67.32
2023-04-30T04:36:58.380Z,67.27
2023-04-30T04:39:27.833Z,67.54
2023-04-30T04:41:58.287Z,67.83
2023-04-30T04:44:27.719Z,67.61
2023-04-30T04:46:58.098Z,67.43
2023-04-30T04:49:27.532Z,67.78
2023-04-30T04:51:59.738Z,68.04
2023-04-30T04:54:29.134Z,67.89
2023-04-30T04:56:58.477Z,68.72
2023-04-30T04:59:27.875Z,68.11
2023-04-30T05:01:57.440Z,68.70
2023-04-30T05:04:28.077Z,68.27
2023-04-30T05:06:59.949Z,68.98
2023-04-30T05:09:29.426Z,69.42
2023-04-30T05:11:58.733Z,69.76
2023-04-30T05:14:28.031Z,69.93
2023-04-30T05:16:57.378Z,70.35
2023-04-30T05:19:26.877Z,70.92
2023-04-30T05:21:56.285Z,70.70
2023-04-30T05:24:28.217Z,71.15
2023-04-30T05:26:57.536Z,72.13
2023-04-30T05:29:26.888Z,72.32
2023-04-30T05:31:56.280Z,72.23
2023-04-30T05:34:25.815Z,71.98
2023-04-30T05:36:55.861Z,72.99
2023-04-30T05:39:27.777Z,72.52
2023-04-30T05:41:57.084Z,72.08
2023-04-30T05:44:26.453Z,72.51
2023-04-30T05:46:55.807Z,72.95
2023-04-30T05:49:25.281Z,73.53
2023-04-30T05:51:54.582Z,74.20
2023-04-30T05:54:23.897Z,73.13
2023-04-30T05:56:55.916Z,74.59
2023-04-30T05:59:26.071Z,74.10
2023-04-30T06:01:55.688Z,73.93
2023-04-30T06:04:25.058Z,74.50
2023-04-30T06:06:54.576Z,75.59
2023-04-30T06:09:23.956Z,76.85
2023-04-30T06:11:56.017Z,77.35
2023-04-30T06:14:25.544Z,77.73
2023-04-30T06:16:55.237Z,78.13
2023-04-30T06:19:24.616Z,75.78
2023-04-30T06:21:53.946Z,76.28
2023-04-30T06:24:23.297Z,75.55
2023-04-30T06:26:52.695Z,73.93
2023-04-30T06:29:24.589Z,74.24
2023-04-30T06:31:54.583Z,74.04
2023-04-30T06:34:24.064Z,73.98
2023-04-30T06:36:53.368Z,74.53
2023-04-30T06:39:22.696Z,73.73
2023-04-30T06:41:52.251Z,71.20
2023-04-30T06:44:24.323Z,70.43
2023-04-30T06:46:53.645Z,71.59
2023-04-30T06:49:22.954Z,70.04
2023-04-30T06:51:52.601Z,69.81
2023-04-30T06:54:22.888Z,69.97
2023-04-30T06:56:52.348Z,70.89
2023-04-30T06:59:24.251Z,69.61
2023-04-30T07:01:53.790Z,69.79
2023-04-30T07:04:24.642Z,70.80
2023-04-30T07:06:53.965Z,70.77
2023-04-30T07:09:23.280Z,71.45
2023-04-30T07:11:52.656Z,71.50
2023-04-30T07:14:24.630Z,71.49
2023-04-30T07:16:53.957Z,71.02
2023-04-30T07:19:23.771Z,69.88
2023-04-30T07:21:53.108Z,69.25
2023-04-30T07:24:22.436Z,70.14
2023-04-30T07:26:51.773Z,70.14
2023-04-30T07:29:23.874Z,68.14
2023-04-30T07:31:53.240Z,68.58
2023-04-30T07:34:22.638Z,68.61
2023-04-30T07:36:52.316Z,69.25
2023-04-30T07:39:21.653Z,70.08
2023-04-30T07:41:50.972Z,70.24
2023-04-30T07:44:21.880Z,69.74
2023-04-30T07:46:53.753Z,68.66
2023-04-30T07:49:23.127Z,68.67
2023-04-30T07:51:52.562Z,67.71
2023-04-30T07:54:22.107Z,68.41
2023-04-30T07:56:51.537Z,71.61
2023-04-30T07:59:21.524Z,69.89
2023-04-30T08:01:53.534Z,70.26
2023-04-30T08:04:22.950Z,66.99
2023-04-30T08:06:52.416Z,67.66
2023-04-30T08:09:21.758Z,67.34
2023-04-30T08:11:51.105Z,67.25
2023-04-30T08:14:20.489Z,68.02
2023-04-30T08:16:52.935Z,67.74
2023-04-30T08:19:22.327Z,67.77
2023-04-30T08:21:51.702Z,67.70
2023-04-30T08:24:21.005Z,65.46
2023-04-30T08:26:50.917Z,66.54
2023-04-30T08:29:20.810Z,66.54
2023-04-30T08:31:52.790Z,66.28
2023-04-30T08:34:22.122Z,66.63
2023-04-30T08:36:51.654Z,66.39
2023-04-30T08:39:21.016Z,64.96
2023-04-30T08:41:57.910Z,64.95
2023-04-30T08:44:29.870Z,65.19
2023-04-30T08:47:02.869Z,64.48
2023-04-30T08:49:33.376Z,66.01
2023-04-30T08:52:03.153Z,66.28
2023-04-30T08:54:34.262Z,67.24
2023-04-30T08:57:03.919Z,65.15
2023-04-30T08:59:33.531Z,65.43
2023-04-30T09:02:05.674Z,65.57
2023-04-30T09:04:35.029Z,64.29
2023-04-30T09:07:05.574Z,64.74
2023-04-30T09:09:41.495Z,64.48
2023-04-30T09:12:19.392Z,62.98
2023-04-30T09:15:05.268Z,63.03
2023-04-30T09:17:38.057Z,63.12
2023-04-30T09:20:11.760Z,63.24
2023-04-30T09:22:42.740Z,63.46
2023-04-30T09:25:12.898Z,61.15
2023-04-30T09:27:42.210Z,61.92
2023-04-30T09:30:12.701Z,61.17
2023-04-30T09:32:57.628Z,61.98
2023-04-30T09:35:33.540Z,60.69
2023-04-30T09:38:04.515Z,60.26
2023-04-30T09:40:42.618Z,60.57
2023-04-30T09:43:12.238Z,59.94
2023-04-30T09:45:47.546Z,60.31
2023-04-30T09:48:23.847Z,60.76
2023-04-30T09:50:54.616Z,61.50
2023-04-30T09:53:24.420Z,60.19
2023-04-30T09:55:56.143Z,64.45
2023-04-30T09:58:30.939Z,61.62
2023-04-30T10:01:03.633Z,62.78
2023-04-30T10:03:35.918Z,60.42
2023-04-30T10:06:06.161Z,65.42
2023-04-30T10:08:42.138Z,62.78
2023-04-30T10:11:16.722Z,67.61
2023-04-30T10:13:52.017Z,65.75
2023-04-30T10:16:30.245Z,61.96
2023-04-30T10:19:06.175Z,58.86
2023-04-30T10:21:36.824Z,58.00
2023-04-30T10:24:07.195Z,57.51
2023-04-30T10:26:36.732Z,59.20
2023-04-30T10:29:07.973Z,57.60
2023-04-30T10:31:38.642Z,60.81
2023-04-30T10:34:25.492Z,61.03
2023-04-30T10:37:00.015Z,59.95
2023-04-30T10:39:30.309Z,59.54
2023-04-30T10:42:07.001Z,57.20
2023-04-30T10:44:37.279Z,59.57
2023-04-30T10:47:08.687Z,60.07
2023-04-30T10:49:43.164Z,60.83
2023-04-30T10:52:14.053Z,61.72
2023-04-30T10:54:52.993Z,62.79
2023-04-30T10:57:25.209Z,62.69
2023-04-30T10:59:56.945Z,58.25
2023-04-30T11:02:26.475Z,57.80
2023-04-30T11:05:35.986Z,56.26
2023-04-30T11:08:06.082Z,56.67
2023-04-30T11:10:37.406Z,57.47
2023-04-30T11:13:10.507Z,60.15
2023-04-30T11:15:44.206Z,58.48
2023-04-30T11:18:13.704Z,55.40
2023-04-30T11:20:53.469Z,55.21
2023-04-30T11:23:39.386Z,53.76
2023-04-30T11:26:10.268Z,54.16
2023-04-30T11:28:40.510Z,53.90
2023-04-30T11:31:10.056Z,54.82
2023-04-30T11:33:39.481Z,55.56
2023-04-30T11:36:12.344Z,54.88
2023-04-30T11:38:42.217Z,52.53
2023-04-30T11:41:15.594Z,53.60
2023-04-30T11:43:44.947Z,54.10
2023-04-30T11:46:17.546Z,53.44
2023-04-30T11:48:48.742Z,53.93
2023-04-30T11:51:24.089Z,53.58
2023-04-30T11:53:55.157Z,54.39
2023-04-30T11:56:25.777Z,52.72
2023-04-30T11:58:56.858Z,54.30
2023-04-30T12:01:29.995Z,57.82
2023-04-30T12:04:00.810Z,54.14
2023-04-30T12:06:33.395Z,53.67
2023-04-30T12:09:05.023Z,53.08
2023-04-30T12:11:34.945Z,52.18
2023-04-30T12:14:07.551Z,52.18
2023-04-30T12:16:45.688Z,51.82
2023-04-30T12:19:15.534Z,52.10
2023-04-30T12:21:49.225Z,52.67
2023-04-30T12:24:20.141Z,52.19
2023-04-30T12:26:49.775Z,52.16
2023-04-30T12:29:20.339Z,53.71
2023-04-30T12:31:52.569Z,51.21
2023-04-30T12:34:22.576Z,51.47
2023-04-30T12:36:54.814Z,50.61
2023-04-30T12:39:24.135Z,51.87
2023-04-30T12:41:53.444Z,51.44
2023-04-30T12:44:24.857Z,50.81
2023-04-30T12:46:56.821Z,50.84
2023-04-30T12:49:27.746Z,51.25
2023-04-30T12:52:07.738Z,50.64
2023-04-30T12:54:38.750Z,51.79
2023-04-30T12:57:09.839Z,52.24
2023-04-30T12:59:41.723Z,51.88
2023-04-30T13:02:12.991Z,52.90
2023-04-30T13:04:43.925Z,52.22
2023-04-30T13:07:15.854Z,52.50
2023-04-30T13:09:45.529Z,53.73
2023-04-30T13:12:15.176Z,53.35
2023-04-30T13:14:44.524Z,52.76
2023-04-30T13:17:14.021Z,51.95
2023-04-30T13:19:43.716Z,51.22
2023-04-30T13:22:13.045Z,51.51
2023-04-30T13:24:44.992Z,51.78
2023-04-30T13:27:14.375Z,50.87
2023-04-30T13:29:43.687Z,50.80
2023-04-30T13:32:13.593Z,50.84
2023-04-30T13:34:42.926Z,50.80
2023-04-30T13:37:12.265Z,51.37
2023-04-30T13:39:42.187Z,50.40
2023-04-30T13:42:14.128Z,50.82
2023-04-30T13:44:45.550Z,50.52
2023-04-30T13:47:15.312Z,50.31
2023-04-30T13:49:44.686Z,50.30
2023-04-30T13:52:14.064Z,50.16
2023-04-30T13:54:43.605Z,50.88
2023-04-30T13:57:15.694Z,49.88
2023-04-30T13:59:45.185Z,50.91
2023-04-30T14:02:14.544Z,52.00
2023-04-30T14:04:54.634Z,50.71
2023-04-30T14:07:32.144Z,50.30
2023-04-30T14:10:04.574Z,51.31
2023-04-30T14:12:36.545Z,51.71
2023-04-30T14:15:06.117Z,51.01
2023-04-30T14:17:35.758Z,51.52
2023-04-30T14:20:05.228Z,51.72
2023-04-30T14:22:38.534Z,49.63
2023-04-30T14:25:09.707Z,50.03
2023-04-30T14:27:42.948Z,49.49
2023-04-30T14:30:13.165Z,49.97
2023-04-30T14:32:42.556Z,50.30
2023-04-30T14:35:12.611Z,50.84
2023-04-30T14:37:41.931Z,50.43
2023-04-30T14:40:12.661Z,50.03
2023-04-30T14:42:44.596Z,50.48
2023-04-30T14:45:14.404Z,50.16
2023-04-30T14:47:44.000Z,50.29
2023-04-30T14:50:14.165Z,50.31
2023-04-30T14:52:43.591Z,50.44
2023-04-30T14:55:12.921Z,50.23
2023-04-30T14:57:44.798Z,50.37
2023-04-30T15:00:16.245Z,51.98
2023-04-30T15:02:45.622Z,50.62
2023-04-30T15:05:14.996Z,50.51
2023-04-30T15:07:44.468Z,50.10
2023-04-30T15:10:14.485Z,50.43
2023-04-30T15:12:46.398Z,49.87
2023-04-30T15:15:18.136Z,50.07
2023-04-30T15:17:48.116Z,49.92
2023-04-30T15:20:17.448Z,49.57
2023-04-30T15:22:46.781Z,48.76
2023-04-30T15:25:16.397Z,48.84
2023-04-30T15:27:48.436Z,49.51
2023-04-30T15:30:17.825Z,49.35
2023-04-30T15:32:49.468Z,49.55
2023-04-30T15:35:19.831Z,49.36
2023-04-30T15:37:49.182Z,48.47
2023-04-30T15:40:18.515Z,49.19
2023-04-30T15:42:50.499Z,49.34
2023-04-30T15:45:20.810Z,48.97
2023-04-30T15:47:50.257Z,49.63
2023-04-30T15:50:19.831Z,49.02
2023-04-30T15:52:49.163Z,48.96
2023-04-30T15:55:18.764Z,48.85
2023-04-30T15:57:50.639Z,48.76
2023-04-30T16:00:20.277Z,49.05
2023-04-30T16:02:49.865Z,48.85
2023-04-30T16:05:22.294Z,48.22
2023-04-30T16:07:51.788Z,48.08
2023-04-30T16:10:21.706Z,49.30
2023-04-30T16:12:53.649Z,49.29
2023-04-30T16:15:24.439Z,48.73
2023-04-30T16:17:53.810Z,48.73
2023-04-30T16:20:23.484Z,48.20
2023-04-30T16:22:52.903Z,48.16
2023-04-30T16:25:23.557Z,48.19
2023-04-30T16:27:56.891Z,48.95
2023-04-30T16:30:26.225Z,48.58
2023-04-30T16:32:55.625Z,48.53
2023-04-30T16:35:24.975Z,49.29
2023-04-30T16:37:54.507Z,48.55
2023-04-30T16:40:24.217Z,47.96
2023-04-30T16:42:56.143Z,48.13
2023-04-30T16:45:26.542Z,47.88
2023-04-30T16:47:56.559Z,48.26
2023-04-30T16:50:27.566Z,48.24
2023-04-30T16:52:57.115Z,48.77
2023-04-30T16:55:28.605Z,48.12
2023-04-30T16:58:00.544Z,49.58
2023-04-30T17:00:29.994Z,49.83
2023-04-30T17:02:59.522Z,50.05
2023-04-30T17:05:28.964Z,50.30
2023-04-30T17:07:58.475Z,50.76
2023-04-30T17:10:30.082Z,51.20
2023-04-30T17:13:04.291Z,51.01
2023-04-30T17:15:33.727Z,50.62
2023-04-30T17:18:03.225Z,50.97
2023-04-30T17:20:32.812Z,50.68
2023-04-30T17:23:02.232Z,51.37
2023-04-30T17:25:32.122Z,51.41
2023-04-30T17:28:04.266Z,51.24
2023-04-30T17:30:33.668Z,51.31
2023-04-30T17:33:04.582Z,51.67
2023-04-30T17:35:34.048Z,51.90
2023-04-30T17:38:03.704Z,50.90
2023-04-30T17:40:33.476Z,51.57
2023-04-30T17:43:05.668Z,51.89
2023-04-30T17:45:35.408Z,52.00
2023-04-30T17:48:04.817Z,52.22
2023-04-30T17:50:34.532Z,51.88
2023-04-30T17:53:03.994Z,51.99
2023-04-30T17:55:33.325Z,52.30
2023-04-30T17:58:07.002Z,52.64
2023-04-30T18:00:37.471Z,52.91
2023-04-30T18:03:08.326Z,52.88
2023-04-30T18:05:39.237Z,52.98
2023-04-30T18:08:09.592Z,52.75
2023-04-30T18:10:39.781Z,53.46
2023-04-30T18:13:11.797Z,52.86
2023-04-30T18:15:41.128Z,53.29
2023-04-30T18:18:10.479Z,53.93
2023-04-30T18:20:40.277Z,54.07
2023-04-30T18:23:10.060Z,54.00
2023-04-30T18:25:40.369Z,53.75
2023-04-30T18:28:12.589Z,54.02
2023-04-30T18:30:41.975Z,54.41
2023-04-30T18:33:11.607Z,54.60
2023-04-30T18:35:40.951Z,54.83
2023-04-30T18:38:10.640Z,55.54
2023-04-30T18:40:39.954Z,55.58
2023-04-30T18:43:11.989Z,55.09
2023-04-30T18:45:41.407Z,55.55
2023-04-30T18:48:10.941Z,55.34
2023-04-30T18:50:43.002Z,55.58
2023-04-30T18:53:12.700Z,55.59
2023-04-30T18:55:43.455Z,55.41
2023-04-30T18:58:15.731Z,55.88
2023-04-30T19:00:45.489Z,55.86
2023-04-30T19:03:15.238Z,56.33
2023-04-30T19:05:45.230Z,56.01
2023-04-30T19:08:15.220Z,55.92
2023-04-30T19:10:44.540Z,56.24
2023-04-30T19:13:16.528Z,55.87
2023-04-30T19:15:46.100Z,56.01
2023-04-30T19:18:16.473Z,56.45
2023-04-30T19:20:45.961Z,56.47
2023-04-30T19:23:15.324Z,56.62
2023-04-30T19:25:44.649Z,56.22
2023-04-30T19:28:17.110Z,57.37
2023-04-30T19:30:46.569Z,56.92
2023-04-30T19:33:16.042Z,57.30
2023-04-30T19:35:45.474Z,57.12
2023-04-30T19:38:14.817Z,57.52
2023-04-30T19:40:49.148Z,57.38
2023-04-30T19:43:22.399Z,57.76
2023-04-30T19:45:53.817Z,57.71
2023-04-30T19:48:23.887Z,56.65
2023-04-30T19:50:54.230Z,57.34
2023-04-30T19:53:25.628Z,58.62
2023-04-30T19:55:55.379Z,58.41
2023-04-30T19:58:27.273Z,58.29
2023-04-30T20:00:56.987Z,58.26
2023-04-30T20:03:26.625Z,58.55
2023-04-30T20:05:56.313Z,58.31
2023-04-30T20:08:25.730Z,58.59
2023-04-30T20:10:55.027Z,58.52
2023-04-30T20:13:27.164Z,58.05
2023-04-30T20:15:56.491Z,58.08
2023-04-30T20:18:25.908Z,58.00
2023-04-30T20:20:55.273Z,57.40
2023-04-30T20:23:24.587Z,59.37
2023-04-30T20:25:55.146Z,59.00
2023-04-30T20:28:27.185Z,58.72
2023-04-30T20:30:56.745Z,58.94
2023-04-30T20:33:26.479Z,60.03
2023-04-30T20:35:58.188Z,61.96
2023-04-30T20:38:27.525Z,59.95
2023-04-30T20:40:56.815Z,59.70
2023-04-30T20:43:28.972Z,59.34
2023-04-30T20:45:59.254Z,59.29
2023-04-30T20:48:28.860Z,58.95
2023-04-30T20:50:58.198Z,58.76
2023-04-30T20:53:27.638Z,58.89
2023-04-30T20:56:00.548Z,58.76
2023-04-30T20:58:32.468Z,58.81
2023-04-30T21:01:03.897Z,58.31
2023-04-30T21:03:33.370Z,58.23
2023-04-30T21:06:03.225Z,58.37
2023-04-30T21:08:32.830Z,57.89
2023-04-30T21:11:03.338Z,57.84
2023-04-30T21:13:35.395Z,58.19
2023-04-30T21:16:05.789Z,57.96
2023-04-30T21:18:35.237Z,57.71
2023-04-30T21:21:05.438Z,57.74
2023-04-30T21:23:35.346Z,57.77
2023-04-30T21:26:04.950Z,58.02
2023-04-30T21:28:39.026Z,57.82
2023-04-30T21:31:09.299Z,58.03
2023-04-30T21:33:40.069Z,59.22
2023-04-30T21:36:10.162Z,59.26
2023-04-30T21:38:39.494Z,59.51
2023-04-30T21:41:09.250Z,59.50
2023-04-30T21:43:41.578Z,59.41
2023-04-30T21:46:11.301Z,59.82
2023-04-30T21:48:41.286Z,60.99
2023-04-30T21:51:15.338Z,60.87
2023-04-30T21:53:44.776Z,61.04
2023-04-30T21:56:15.010Z,61.11
2023-04-30T21:58:46.977Z,60.34
2023-04-30T22:01:17.232Z,60.42
2023-04-30T22:03:46.598Z,59.99
2023-04-30T22:06:16.002Z,60.54
2023-04-30T22:08:45.369Z,60.79
2023-04-30T22:11:14.836Z,60.86
2023-04-30T22:13:46.842Z,60.74
2023-04-30T22:16:16.231Z,61.35
2023-04-30T22:18:45.574Z,61.17
2023-04-30T22:21:14.912Z,61.67
2023-04-30T22:23:44.222Z,61.92
2023-04-30T22:26:13.538Z,61.92
2023-04-30T22:28:42.914Z,61.68
2023-04-30T22:31:14.844Z,62.07
2023-04-30T22:33:44.791Z,62.01
2023-04-30T22:36:14.088Z,61.63
2023-04-30T22:38:43.382Z,62.04
2023-04-30T22:41:12.849Z,62.22
2023-04-30T22:43:42.563Z,62.48
2023-04-30T22:46:15.582Z,62.02
2023-04-30T22:48:45.294Z,62.51
2023-04-30T22:51:14.795Z,62.13
2023-04-30T22:53:44.160Z,62.24
2023-04-30T22:56:13.753Z,62.68
2023-04-30T22:58:43.267Z,62.99
2023-04-30T23:01:15.227Z,62.75
2023-04-30T23:03:44.692Z,62.69
2023-04-30T23:06:14.398Z,62.19
2023-04-30T23:08:44.473Z,62.50
2023-04-30T23:11:13.929Z,62.36
2023-04-30T23:13:43.272Z,62.95
2023-04-30T23:16:15.441Z,63.28
2023-04-30T23:18:45.966Z,63.06
2023-04-30T23:21:15.332Z,63.05
2023-04-30T23:23:44.659Z,63.30
2023-04-30T23:26:14.044Z,62.93
2023-04-30T23:28:43.378Z,62.78
2023-04-30T23:31:15.518Z,62.51
2023-04-30T23:33:44.837Z,62.57
2023-04-30T23:36:14.467Z,62.31
2023-04-30T23:38:43.823Z,62.37
2023-04-30T23:41:13.164Z,62.61
2023-04-30T23:43:42.673Z,62.66
2023-04-30T23:46:12.154Z,62.79
2023-04-30T23:48:44.077Z,62.99
2023-04-30T23:51:13.481Z,62.67
2023-04-30T23:53:42.797Z,62.83
2023-04-30T23:56:12.158Z,62.99
2023-04-30T23:58:41.488Z,62.45
